createdAt,value
2018-04-18T00:01:35.424Z,12.97
2018-04-18T00:04:04.443Z,13.53
2018-04-18T00:06:33.384Z,14.37
2018-04-18T00:09:02.528Z,14.47
2018-04-18T00:11:31.475Z,15.37
2018-04-18T00:14:00.479Z,15.90
2018-04-18T00:16:30.286Z,17.47
2018-04-18T00:18:59.989Z,18.50
2018-04-18T00:21:29.663Z,20.50
2018-04-18T00:23:58.566Z,17.20
2018-04-18T00:26:27.670Z,19.40
2018-04-18T00:28:56.784Z,21.17
2018-04-18T00:31:26.456Z,20.07
2018-04-18T00:33:55.496Z,23.03
2018-04-18T00:36:25.149Z,20.73
2018-04-18T00:38:54.081Z,24.57
2018-04-18T00:41:23.843Z,22.57
2018-04-18T00:43:52.963Z,23.90
2018-04-18T00:46:21.859Z,23.70
2018-04-18T00:48:50.828Z,22.73
2018-04-18T00:51:19.725Z,24.33
2018-04-18T00:53:48.742Z,26.23
2018-04-18T00:56:17.684Z,24.07
2018-04-18T00:58:46.970Z,22.63
2018-04-18T01:01:15.921Z,25.53
2018-04-18T01:03:44.880Z,25.93
2018-04-18T01:06:13.793Z,28.80
2018-04-18T01:08:42.774Z,23.10
2018-04-18T01:11:11.954Z,23.17
2018-04-18T01:13:40.880Z,22.43
2018-04-18T01:16:09.805Z,22.40
2018-04-18T01:18:38.730Z,22.60
2018-04-18T01:21:07.625Z,23.30
2018-04-18T01:23:36.666Z,22.40
2018-04-18T01:26:06.393Z,21.93
2018-04-18T01:28:36.057Z,23.23
2018-04-18T01:31:04.977Z,19.30
2018-04-18T01:33:34.076Z,22.23
2018-04-18T01:36:02.972Z,28.00
2018-04-18T01:38:32.616Z,25.67
2018-04-18T01:41:01.548Z,21.67
2018-04-18T01:43:30.766Z,21.83
2018-04-18T01:46:00.530Z,23.10
2018-04-18T01:48:29.442Z,23.03
2018-04-18T01:50:58.520Z,23.10
2018-04-18T01:53:27.462Z,28.30
2018-04-18T01:55:57.177Z,28.10
2018-04-18T01:58:26.354Z,26.63
2018-04-18T02:00:55.300Z,27.40
2018-04-18T02:03:24.967Z,26.30
2018-04-18T02:05:54.763Z,28.10
2018-04-18T02:08:24.672Z,28.77
2018-04-18T02:10:53.556Z,32.17
2018-04-18T02:13:22.769Z,29.87
2018-04-18T02:15:52.079Z,28.20
2018-04-18T02:18:21.779Z,30.13
2018-04-18T02:20:50.809Z,32.50
2018-04-18T02:23:19.834Z,31.53
2018-04-18T02:25:48.768Z,34.43
2018-04-18T02:28:18.732Z,30.03
2018-04-18T02:30:47.650Z,31.03
2018-04-18T02:33:17.353Z,36.90
2018-04-18T02:35:46.311Z,34.03
2018-04-18T02:38:15.228Z,34.33
2018-04-18T02:40:44.164Z,31.73
2018-04-18T02:43:14.001Z,35.80
2018-04-18T02:45:42.981Z,31.57
2018-04-18T02:48:11.925Z,30.33
2018-04-18T02:50:40.883Z,31.70
2018-04-18T02:53:09.865Z,29.00
2018-04-18T02:55:38.910Z,25.80
2018-04-18T02:58:07.822Z,27.80
2018-04-18T03:00:37.539Z,28.67
2018-04-18T03:03:07.244Z,27.27
2018-04-18T03:05:36.278Z,27.50
2018-04-18T03:08:05.237Z,24.83
2018-04-18T03:10:35.266Z,26.40
2018-04-18T03:13:04.253Z,25.90
2018-04-18T03:15:33.164Z,26.50
2018-04-18T03:18:02.093Z,28.97
2018-04-18T03:20:31.206Z,25.30
2018-04-18T03:23:00.101Z,31.40
2018-04-18T03:25:30.007Z,41.63
2018-04-18T03:27:58.890Z,36.87
2018-04-18T03:30:27.799Z,46.63
2018-04-18T03:32:56.734Z,52.50
2018-04-18T03:35:25.659Z,45.43
2018-04-18T03:37:54.658Z,29.47
2018-04-18T03:40:23.600Z,29.13
2018-04-18T03:42:53.542Z,31.03
2018-04-18T03:45:22.625Z,26.77
2018-04-18T03:47:51.578Z,29.00
2018-04-18T03:50:21.264Z,29.80
2018-04-18T03:52:50.175Z,27.53
2018-04-18T03:55:19.869Z,28.63
2018-04-18T03:57:48.767Z,29.73
2018-04-18T04:00:18.433Z,31.30
2018-04-18T04:02:47.482Z,29.80
2018-04-18T04:05:16.622Z,35.67
2018-04-18T04:07:45.609Z,32.90
2018-04-18T04:10:14.674Z,34.17
2018-04-18T04:12:43.900Z,29.23
2018-04-18T04:15:13.056Z,31.70
2018-04-18T04:17:59.755Z,35.97
2018-04-18T04:20:46.334Z,32.57
2018-04-18T04:23:33.157Z,35.63
2018-04-18T04:26:02.077Z,35.53
2018-04-18T04:28:31.760Z,30.83
2018-04-18T04:31:00.789Z,57.83
2018-04-18T04:33:30.191Z,65.00
2018-04-18T04:35:59.138Z,46.50
2018-04-18T04:38:28.168Z,46.90
2018-04-18T04:40:57.323Z,35.57
2018-04-18T04:43:27.774Z,37.83
2018-04-18T04:45:56.715Z,41.80
2018-04-18T04:48:25.768Z,47.23
2018-04-18T04:50:55.527Z,32.77
2018-04-18T04:53:25.554Z,38.10
2018-04-18T04:55:54.659Z,31.47
2018-04-18T04:58:23.621Z,34.20
2018-04-18T05:00:52.662Z,30.60
2018-04-18T05:03:22.646Z,28.63
2018-04-18T05:05:51.625Z,31.03
2018-04-18T05:08:21.021Z,31.43
2018-04-18T05:10:49.962Z,27.80
2018-04-18T05:13:18.911Z,28.23
2018-04-18T05:15:48.037Z,29.03
2018-04-18T05:18:16.985Z,38.00
2018-04-18T05:20:45.904Z,30.17
2018-04-18T05:23:15.066Z,29.00
2018-04-18T05:25:44.051Z,27.10
2018-04-18T05:28:13.209Z,26.43
2018-04-18T05:30:42.612Z,27.10
2018-04-18T05:33:11.522Z,28.30
2018-04-18T05:35:40.448Z,22.30
2018-04-18T05:38:09.536Z,29.20
2018-04-18T05:40:38.508Z,22.80
2018-04-18T05:43:08.209Z,24.07
2018-04-18T05:45:37.220Z,22.67
2018-04-18T05:48:06.203Z,22.03
2018-04-18T05:50:35.874Z,23.53
2018-04-18T05:53:04.913Z,26.93
2018-04-18T05:55:33.939Z,22.83
2018-04-18T05:58:02.901Z,21.97
2018-04-18T06:00:32.668Z,23.20
2018-04-18T06:03:01.583Z,24.83
2018-04-18T06:05:32.225Z,20.12
2018-04-18T06:08:01.938Z,19.57
2018-04-18T06:10:31.657Z,19.65
2018-04-18T06:13:01.400Z,22.62
2018-04-18T06:15:30.321Z,19.00
2018-04-18T06:17:59.313Z,23.52
2018-04-18T06:20:28.280Z,22.30
2018-04-18T06:22:57.370Z,23.33
2018-04-18T06:25:26.272Z,25.00
2018-04-18T06:27:55.200Z,24.05
2018-04-18T06:30:24.153Z,20.33
2018-04-18T06:32:53.117Z,23.12
2018-04-18T06:35:22.076Z,22.83
2018-04-18T06:37:51.319Z,19.73
2018-04-18T06:40:20.404Z,20.70
2018-04-18T06:42:49.336Z,23.45
2018-04-18T06:45:18.325Z,22.83
2018-04-18T06:47:47.227Z,21.10
2018-04-18T06:50:16.173Z,19.70
2018-04-18T06:52:45.074Z,21.70
2018-04-18T06:55:13.973Z,20.23
2018-04-18T06:57:43.002Z,18.65
2018-04-18T07:00:12.193Z,18.08
2018-04-18T07:02:41.089Z,20.12
2018-04-18T07:05:10.000Z,18.15
2018-04-18T07:07:39.680Z,16.83
2018-04-18T07:10:08.589Z,16.05
2018-04-18T07:12:37.529Z,17.58
2018-04-18T07:15:06.572Z,16.55
2018-04-18T07:17:35.488Z,17.67
2018-04-18T07:20:04.474Z,17.02
2018-04-18T07:22:34.148Z,18.58
2018-04-18T07:25:03.053Z,16.87
2018-04-18T07:27:32.185Z,15.82
2018-04-18T07:30:01.327Z,18.20
2018-04-18T07:32:30.259Z,15.60
2018-04-18T07:34:59.923Z,19.42
2018-04-18T07:37:28.896Z,20.08
2018-04-18T07:39:57.848Z,19.50
2018-04-18T07:42:27.559Z,18.20
2018-04-18T07:44:57.242Z,18.77
2018-04-18T07:47:35.065Z,18.75
2018-04-18T07:50:04.870Z,17.92
2018-04-18T07:52:34.519Z,19.42
2018-04-18T07:55:03.675Z,17.58
2018-04-18T07:57:33.403Z,15.88
2018-04-18T08:00:02.484Z,19.20
2018-04-18T08:02:32.636Z,15.18
2018-04-18T08:05:01.535Z,13.30
2018-04-18T08:07:30.457Z,15.73
2018-04-18T08:09:59.383Z,15.25
2018-04-18T08:12:28.270Z,13.65
2018-04-18T08:14:57.160Z,12.48
2018-04-18T08:17:26.896Z,14.10
2018-04-18T08:19:55.919Z,16.80
2018-04-18T08:22:25.360Z,14.95
2018-04-18T08:24:54.555Z,15.52
2018-04-18T08:27:23.699Z,14.68
2018-04-18T08:29:52.584Z,15.73
2018-04-18T08:32:21.645Z,13.60
2018-04-18T08:34:51.307Z,16.30
2018-04-18T08:37:20.322Z,16.62
2018-04-18T08:39:49.280Z,14.85
2018-04-18T08:42:18.164Z,14.55
2018-04-18T08:44:47.081Z,13.65
2018-04-18T08:47:15.961Z,12.00
2018-04-18T08:49:44.876Z,12.43
2018-04-18T08:52:13.743Z,12.27
2018-04-18T08:54:42.715Z,9.18
2018-04-18T08:57:11.717Z,9.88
2018-04-18T08:59:40.712Z,10.93
2018-04-18T09:02:09.630Z,11.15
2018-04-18T09:04:38.531Z,11.65
2018-04-18T09:07:07.435Z,11.50
2018-04-18T09:09:37.182Z,11.80
2018-04-18T09:12:06.068Z,12.65
2018-04-18T09:14:34.955Z,11.40
2018-04-18T09:17:03.868Z,13.05
2018-04-18T09:19:32.767Z,11.10
2018-04-18T09:22:01.697Z,10.75
2018-04-18T09:24:31.451Z,10.15
2018-04-18T09:27:00.388Z,9.88
2018-04-18T09:29:29.316Z,10.82
2018-04-18T09:31:58.239Z,9.45
2018-04-18T09:34:27.140Z,8.73
2018-04-18T09:36:56.045Z,9.63
2018-04-18T09:39:25.132Z,10.02
2018-04-18T09:41:54.086Z,10.25
2018-04-18T09:44:22.985Z,9.10
2018-04-18T09:46:51.910Z,7.60
2018-04-18T09:49:20.805Z,7.55
2018-04-18T09:51:49.745Z,6.00
2018-04-18T09:54:18.749Z,7.25
2018-04-18T09:56:47.648Z,6.72
2018-04-18T09:59:16.501Z,8.27
2018-04-18T10:01:46.248Z,10.30
2018-04-18T10:04:15.197Z,7.43
2018-04-18T10:06:44.886Z,7.05
2018-04-18T10:09:13.789Z,6.57
2018-04-18T10:11:42.849Z,8.23
2018-04-18T10:14:11.913Z,6.53
2018-04-18T10:16:40.822Z,6.53
2018-04-18T10:19:10.049Z,7.28
2018-04-18T10:21:39.020Z,7.05
2018-04-18T10:24:07.967Z,7.12
2018-04-18T10:26:37.612Z,8.27
2018-04-18T10:29:06.520Z,13.55
2018-04-18T10:31:35.470Z,12.00
2018-04-18T10:34:05.141Z,6.25
2018-04-18T10:36:34.264Z,8.35
2018-04-18T10:39:03.270Z,7.70
2018-04-18T10:41:34.129Z,8.63
2018-04-18T10:44:03.149Z,11.15
2018-04-18T10:46:32.213Z,7.60
2018-04-18T10:49:01.452Z,6.47
2018-04-18T10:51:30.743Z,9.15
2018-04-18T10:53:59.748Z,12.40
2018-04-18T10:56:29.480Z,10.35
2018-04-18T10:58:59.153Z,8.57
2018-04-18T11:01:28.936Z,7.25
2018-04-18T11:03:57.871Z,11.50
2018-04-18T11:06:26.973Z,7.55
2018-04-18T11:08:55.893Z,8.40
2018-04-18T11:11:24.785Z,9.93
2018-04-18T11:13:53.724Z,9.60
2018-04-18T11:16:22.644Z,8.55
2018-04-18T11:18:52.353Z,6.00
2018-04-18T11:21:22.056Z,7.80
2018-04-18T11:23:51.840Z,9.15
2018-04-18T11:26:21.584Z,8.88
2018-04-18T11:28:51.518Z,10.98
2018-04-18T11:31:20.404Z,6.82
2018-04-18T11:33:49.537Z,5.97
2018-04-18T11:36:18.435Z,5.20
2018-04-18T11:38:47.397Z,8.10
2018-04-18T11:41:16.529Z,5.05
2018-04-18T11:43:45.471Z,10.65
2018-04-18T11:46:14.599Z,5.37
2018-04-18T11:48:43.502Z,8.65
2018-04-18T11:51:12.466Z,9.70
2018-04-18T11:53:41.409Z,4.47
2018-04-18T11:56:10.333Z,5.07
2018-04-18T11:58:39.252Z,5.57
2018-04-18T12:01:08.214Z,5.85
2018-04-18T12:03:37.868Z,4.15
2018-04-18T12:06:06.933Z,4.22
2018-04-18T12:08:35.852Z,6.32
2018-04-18T12:11:05.484Z,7.03
2018-04-18T12:13:34.385Z,5.50
2018-04-18T12:16:03.348Z,6.18
2018-04-18T12:18:32.240Z,4.28
2018-04-18T12:21:01.590Z,6.40
2018-04-18T12:23:31.726Z,4.00
2018-04-18T12:26:00.660Z,6.72
2018-04-18T12:28:29.900Z,9.60
2018-04-18T12:30:58.868Z,5.82
2018-04-18T12:33:28.535Z,9.80
2018-04-18T12:35:57.477Z,5.97
2018-04-18T12:38:26.384Z,10.57
2018-04-18T12:40:55.321Z,4.78
2018-04-18T12:43:24.451Z,7.65
2018-04-18T12:45:53.880Z,6.47
2018-04-18T12:48:23.189Z,7.05
2018-04-18T12:50:52.210Z,5.45
2018-04-18T12:53:21.137Z,8.77
2018-04-18T12:55:50.082Z,6.80
2018-04-18T12:58:19.060Z,5.50
2018-04-18T13:00:48.128Z,5.68
2018-04-18T13:03:18.560Z,4.40
2018-04-18T13:05:48.318Z,7.78
2018-04-18T13:08:17.550Z,3.83
2018-04-18T13:10:46.441Z,6.93
2018-04-18T13:13:15.357Z,5.32
2018-04-18T13:15:44.528Z,5.03
2018-04-18T13:18:13.472Z,4.97
2018-04-18T13:20:42.391Z,7.60
2018-04-18T13:23:11.322Z,5.60
2018-04-18T13:25:41.219Z,5.75
2018-04-18T13:28:10.128Z,4.12
2018-04-18T13:30:39.799Z,7.45
2018-04-18T13:33:08.811Z,4.47
2018-04-18T13:35:37.712Z,5.12
2018-04-18T13:38:07.595Z,9.32
2018-04-18T13:40:36.568Z,8.45
2018-04-18T13:43:05.545Z,5.82
2018-04-18T13:45:34.692Z,6.70
2018-04-18T13:48:03.573Z,6.15
2018-04-18T13:50:32.492Z,5.10
2018-04-18T13:53:01.621Z,5.47
2018-04-18T13:55:30.556Z,7.65
2018-04-18T13:57:59.459Z,5.15
2018-04-18T14:00:28.351Z,7.72
2018-04-18T14:02:57.274Z,7.25
2018-04-18T14:05:26.165Z,6.80
2018-04-18T14:07:55.066Z,5.85
2018-04-18T14:10:24.480Z,4.53
2018-04-18T14:12:53.384Z,4.45
2018-04-18T14:15:22.473Z,3.97
2018-04-18T14:17:51.419Z,5.28
2018-04-18T14:20:20.722Z,6.07
2018-04-18T14:22:50.409Z,6.22
2018-04-18T14:25:19.284Z,5.72
2018-04-18T14:27:48.200Z,8.93
2018-04-18T14:30:17.856Z,7.37
2018-04-18T14:32:46.751Z,7.40
2018-04-18T14:35:15.664Z,6.60
2018-04-18T14:37:44.571Z,6.00
2018-04-18T14:40:13.555Z,7.70
2018-04-18T14:42:43.252Z,8.48
2018-04-18T14:45:12.212Z,5.12
2018-04-18T14:47:41.134Z,7.78
2018-04-18T14:50:10.129Z,5.90
2018-04-18T14:52:39.032Z,4.87
2018-04-18T14:55:07.930Z,6.60
2018-04-18T14:57:36.834Z,5.43
2018-04-18T15:00:05.770Z,7.18
2018-04-18T15:02:34.971Z,6.80
2018-04-18T15:05:03.887Z,9.10
2018-04-18T15:07:33.064Z,7.20
2018-04-18T15:10:02.201Z,4.70
2018-04-18T15:12:31.868Z,7.30
2018-04-18T15:15:00.914Z,6.87
2018-04-18T15:17:30.760Z,7.97
2018-04-18T15:19:59.675Z,5.68
2018-04-18T15:22:28.548Z,8.38
2018-04-18T15:24:57.481Z,6.20
2018-04-18T15:27:27.981Z,4.67
2018-04-18T15:29:56.957Z,5.73
2018-04-18T15:32:25.844Z,6.70
2018-04-18T15:34:54.885Z,5.13
2018-04-18T15:37:23.800Z,6.00
2018-04-18T15:39:52.726Z,5.60
2018-04-18T15:42:21.612Z,6.87
2018-04-18T15:44:50.581Z,7.63
2018-04-18T15:47:19.520Z,5.50
2018-04-18T15:49:48.550Z,5.53
2018-04-18T15:52:18.232Z,5.20
2018-04-18T15:54:48.057Z,5.70
2018-04-18T15:57:17.117Z,6.80
2018-04-18T15:59:46.032Z,5.97
2018-04-18T16:02:15.174Z,7.17
2018-04-18T16:04:44.743Z,5.87
2018-04-18T16:07:13.993Z,7.47
2018-04-18T16:09:42.971Z,5.60
2018-04-18T16:12:11.889Z,8.17
2018-04-18T16:14:41.031Z,7.37
2018-04-18T16:17:10.712Z,5.83
2018-04-18T16:19:39.671Z,7.23
2018-04-18T16:22:08.703Z,9.93
2018-04-18T16:24:37.679Z,10.77
2018-04-18T16:27:06.727Z,7.07
2018-04-18T16:29:43.788Z,7.43
2018-04-18T16:32:12.767Z,7.30
2018-04-18T16:34:42.667Z,6.17
2018-04-18T16:37:11.613Z,8.63
2018-04-18T16:39:41.465Z,7.07
2018-04-18T16:42:10.384Z,5.47
2018-04-18T16:44:40.212Z,4.70
2018-04-18T16:47:10.067Z,6.03
2018-04-18T16:49:39.080Z,4.97
2018-04-18T16:52:07.971Z,4.73
2018-04-18T16:54:36.877Z,8.77
2018-04-18T16:57:05.863Z,4.97
2018-04-18T16:59:34.723Z,7.33
2018-04-18T17:02:04.073Z,4.57
2018-04-18T17:04:33.387Z,5.00
2018-04-18T17:07:02.993Z,6.00
2018-04-18T17:09:33.023Z,5.43
2018-04-18T17:12:02.244Z,7.43
2018-04-18T17:14:31.180Z,5.00
2018-04-18T17:17:00.147Z,6.20
2018-04-18T17:19:29.266Z,8.50
2018-04-18T17:21:58.480Z,8.00
2018-04-18T17:24:27.427Z,15.13
2018-04-18T17:26:56.484Z,10.43
2018-04-18T17:29:26.140Z,6.73
2018-04-18T17:31:55.081Z,5.97
2018-04-18T17:34:24.042Z,6.83
2018-04-18T17:36:53.050Z,13.40
2018-04-18T17:39:21.936Z,10.93
2018-04-18T17:41:51.289Z,8.23
2018-04-18T17:44:20.384Z,9.33
2018-04-18T17:46:49.306Z,8.83
2018-04-18T17:49:18.413Z,7.17
2018-04-18T17:51:47.484Z,6.93
2018-04-18T17:54:16.380Z,7.87
2018-04-18T17:56:45.361Z,5.90
2018-04-18T17:59:14.344Z,11.80
2018-04-18T18:01:43.344Z,23.87
2018-04-18T18:04:12.567Z,38.37
2018-04-18T18:06:41.523Z,13.93
2018-04-18T18:09:10.467Z,7.50
2018-04-18T18:11:39.425Z,6.60
2018-04-18T18:14:08.446Z,8.33
2018-04-18T18:16:37.570Z,8.07
2018-04-18T18:19:07.617Z,12.57
2018-04-18T18:21:36.613Z,8.93
2018-04-18T18:24:05.749Z,8.97
2018-04-18T18:26:34.658Z,10.67
2018-04-18T18:29:03.800Z,9.87
2018-04-18T18:31:32.843Z,12.73
2018-04-18T18:34:01.693Z,10.00
2018-04-18T18:36:30.680Z,8.23
2018-04-18T18:38:59.609Z,9.27
2018-04-18T18:41:28.539Z,8.20
2018-04-18T18:43:57.695Z,6.47
2018-04-18T18:46:26.804Z,8.50
2018-04-18T18:48:55.685Z,6.47
2018-04-18T18:51:24.688Z,5.53
2018-04-18T18:53:54.545Z,7.20
2018-04-18T18:56:23.785Z,10.53
2018-04-18T18:58:52.740Z,13.37
2018-04-18T19:01:21.673Z,5.77
2018-04-18T19:03:50.597Z,7.17
2018-04-18T19:06:19.702Z,5.50
2018-04-18T19:08:48.649Z,8.47
2018-04-18T19:11:17.844Z,9.43
2018-04-18T19:13:46.899Z,5.80
2018-04-18T19:16:15.848Z,6.73
2018-04-18T19:18:45.621Z,6.93
2018-04-18T19:21:14.576Z,4.97
2018-04-18T19:23:43.519Z,6.37
2018-04-18T19:26:12.566Z,9.20
2018-04-18T19:28:41.666Z,14.40
2018-04-18T19:31:10.546Z,6.03
2018-04-18T19:33:39.500Z,11.67
2018-04-18T19:36:08.457Z,10.47
2018-04-18T19:38:38.138Z,7.27
2018-04-18T19:41:07.520Z,8.57
2018-04-18T19:43:37.425Z,5.57
2018-04-18T19:46:07.438Z,5.93
2018-04-18T19:48:36.566Z,9.57
2018-04-18T19:51:05.508Z,6.20
2018-04-18T19:53:34.413Z,10.83
2018-04-18T19:56:03.425Z,9.50
2018-04-18T19:58:32.345Z,11.57
2018-04-18T20:01:01.388Z,7.17
2018-04-18T20:03:30.596Z,7.90
2018-04-18T20:05:59.856Z,10.57
2018-04-18T20:08:28.761Z,8.77
2018-04-18T20:11:01.209Z,8.70
2018-04-18T20:13:30.568Z,7.47
2018-04-18T20:16:00.765Z,8.53
2018-04-18T20:18:29.701Z,12.77
2018-04-18T20:20:58.708Z,19.53
2018-04-18T20:23:27.791Z,7.50
2018-04-18T20:25:56.695Z,7.10
2018-04-18T20:28:25.668Z,40.20
2018-04-18T20:30:54.596Z,42.00
2018-04-18T20:33:23.701Z,14.63
2018-04-18T20:35:52.603Z,9.57
2018-04-18T20:38:21.493Z,11.33
2018-04-18T20:40:51.133Z,7.40
2018-04-18T20:43:20.232Z,9.57
2018-04-18T20:45:51.036Z,7.40
2018-04-18T20:48:21.086Z,9.60
2018-04-18T20:50:50.094Z,5.47
2018-04-18T20:53:19.014Z,7.83
2018-04-18T20:55:47.942Z,5.47
2018-04-18T20:58:17.160Z,7.50
2018-04-18T21:00:46.083Z,4.83
2018-04-18T21:03:15.211Z,6.87
2018-04-18T21:05:44.219Z,9.57
2018-04-18T21:08:13.819Z,8.33
2018-04-18T21:10:42.802Z,7.83
2018-04-18T21:13:11.693Z,8.47
2018-04-18T21:15:40.590Z,8.10
2018-04-18T21:18:09.729Z,6.70
2018-04-18T21:20:38.640Z,23.80
2018-04-18T21:23:07.577Z,11.67
2018-04-18T21:25:36.570Z,8.77
2018-04-18T21:28:05.475Z,7.50
2018-04-18T21:30:35.339Z,11.13
2018-04-18T21:33:04.408Z,6.30
2018-04-18T21:35:33.291Z,5.83
2018-04-18T21:38:02.185Z,6.13
2018-04-18T21:40:31.251Z,8.07
2018-04-18T21:43:00.308Z,5.93
2018-04-18T21:45:29.245Z,5.47
2018-04-18T21:47:58.325Z,3.87
2018-04-18T21:50:27.188Z,4.90
2018-04-18T21:52:56.111Z,5.93
2018-04-18T21:55:24.992Z,3.53
2018-04-18T21:57:53.934Z,4.17
2018-04-18T22:00:22.821Z,4.33
2018-04-18T22:02:51.762Z,5.10
2018-04-18T22:05:20.734Z,4.43
2018-04-18T22:07:49.613Z,3.43
2018-04-18T22:10:18.555Z,6.23
2018-04-18T22:12:48.233Z,3.27
2018-04-18T22:15:17.117Z,4.10
2018-04-18T22:17:46.013Z,5.50
2018-04-18T22:20:14.885Z,3.37
2018-04-18T22:22:43.730Z,4.03
2018-04-18T22:25:13.428Z,3.40
2018-04-18T22:27:43.101Z,3.83
2018-04-18T22:30:12.001Z,3.13
2018-04-18T22:32:41.061Z,5.87
2018-04-18T22:35:10.244Z,3.27
2018-04-18T22:37:39.099Z,3.20
2018-04-18T22:40:08.003Z,6.07
2018-04-18T22:42:37.833Z,3.43
2018-04-18T22:45:07.089Z,6.10
2018-04-18T22:47:35.991Z,3.20
2018-04-18T22:50:04.904Z,2.07
2018-04-18T22:52:34.800Z,5.43
2018-04-18T22:55:03.677Z,5.20
2018-04-18T22:57:32.797Z,5.33
2018-04-18T23:00:02.436Z,3.40
2018-04-18T23:02:31.308Z,3.50
2018-04-18T23:05:00.181Z,2.63
2018-04-18T23:07:29.054Z,4.93
2018-04-18T23:09:57.936Z,5.73
2018-04-18T23:12:26.828Z,5.57
2018-04-18T23:14:55.696Z,5.37
2018-04-18T23:17:24.573Z,4.63
2018-04-18T23:19:53.449Z,5.77
2018-04-18T23:22:34.390Z,4.23
2018-04-18T23:25:03.349Z,5.63
2018-04-18T23:27:32.580Z,6.17
2018-04-18T23:30:01.482Z,6.07
2018-04-18T23:32:31.203Z,3.87
2018-04-18T23:35:00.223Z,6.90
2018-04-18T23:37:29.078Z,4.97
2018-04-18T23:39:58.823Z,6.40
2018-04-18T23:42:27.685Z,5.43
2018-04-18T23:44:56.543Z,8.93
2018-04-18T23:47:25.786Z,9.27
2018-04-18T23:49:54.960Z,8.60
2018-04-18T23:52:24.598Z,7.00
2018-04-18T23:54:53.467Z,8.70
2018-04-18T23:57:23.159Z,7.93
2018-04-18T23:59:52.065Z,9.20
